sensor_id;sensor_type;location;lat;lon;timestamp;temperature;humidity
47414;DHT22;33163;0.000;0.000;2023-10-13T00:01:47;21.20;91.00
47414;DHT22;33163;0.000;0.000;2023-10-13T00:04:17;21.20;91.00
47414;DHT22;33163;0.000;0.000;2023-10-13T00:06:47;21.20;91.00
47414;DHT22;33163;0.000;0.000;2023-10-13T00:09:14;21.20;91.00
47414;DHT22;33163;0.000;0.000;2023-10-13T00:11:42;21.20;91.00
47414;DHT22;33163;0.000;0.000;2023-10-13T00:14:11;21.20;91.00
47414;DHT22;33163;0.000;0.000;2023-10-13T00:16:39;21.20;91.00
47414;DHT22;33163;0.000;0.000;2023-10-13T00:19:08;21.20;91.00
47414;DHT22;33163;0.000;0.000;2023-10-13T00:21:38;21.20;91.00
47414;DHT22;33163;0.000;0.000;2023-10-13T00:24:07;21.20;91.00
47414;DHT22;33163;0.000;0.000;2023-10-13T00:26:39;21.20;91.00
47414;DHT22;33163;0.000;0.000;2023-10-13T00:29:08;21.20;91.00
47414;DHT22;33163;0.000;0.000;2023-10-13T00:31:41;21.20;91.00
47414;DHT22;33163;0.000;0.000;2023-10-13T00:34:10;21.20;91.00
47414;DHT22;33163;0.000;0.000;2023-10-13T00:36:41;21.20;91.00
47414;DHT22;33163;0.000;0.000;2023-10-13T00:39:14;21.20;91.00
47414;DHT22;33163;0.000;0.000;2023-10-13T00:41:42;21.20;91.00
47414;DHT22;33163;0.000;0.000;2023-10-13T00:44:17;21.20;91.00
47414;DHT22;33163;0.000;0.000;2023-10-13T00:46:44;21.20;91.00
47414;DHT22;33163;0.000;0.000;2023-10-13T00:49:13;21.20;91.00
47414;DHT22;33163;0.000;0.000;2023-10-13T00:51:41;21.20;91.00
47414;DHT22;33163;0.000;0.000;2023-10-13T00:54:13;21.10;91.00
47414;DHT22;33163;0.000;0.000;2023-10-13T00:56:42;21.20;91.00
47414;DHT22;33163;0.000;0.000;2023-10-13T00:59:13;21.20;91.00
47414;DHT22;33163;0.000;0.000;2023-10-13T01:01:39;21.20;91.00
47414;DHT22;33163;0.000;0.000;2023-10-13T01:04:10;21.20;91.00
47414;DHT22;33163;0.000;0.000;2023-10-13T01:06:39;21.10;91.00
47414;DHT22;33163;0.000;0.000;2023-10-13T01:09:07;21.20;91.00
47414;DHT22;33163;0.000;0.000;2023-10-13T01:11:43;21.20;91.00
47414;DHT22;33163;0.000;0.000;2023-10-13T01:14:10;21.20;91.00
47414;DHT22;33163;0.000;0.000;2023-10-13T01:16:37;21.10;91.00
47414;DHT22;33163;0.000;0.000;2023-10-13T01:19:09;21.10;91.00
47414;DHT22;33163;0.000;0.000;2023-10-13T01:21:38;21.20;91.00
47414;DHT22;33163;0.000;0.000;2023-10-13T01:24:08;21.20;91.00
47414;DHT22;33163;0.000;0.000;2023-10-13T01:26:35;21.10;91.00
47414;DHT22;33163;0.000;0.000;2023-10-13T01:29:05;21.20;91.00
47414;DHT22;33163;0.000;0.000;2023-10-13T01:31:40;21.10;91.00
47414;DHT22;33163;0.000;0.000;2023-10-13T01:34:12;21.20;91.00
47414;DHT22;33163;0.000;0.000;2023-10-13T01:36:38;21.10;91.00
47414;DHT22;33163;0.000;0.000;2023-10-13T01:39:07;21.10;91.00
47414;DHT22;33163;0.000;0.000;2023-10-13T01:41:33;21.10;90.90
47414;DHT22;33163;0.000;0.000;2023-10-13T01:44:03;21.10;90.90
47414;DHT22;33163;0.000;0.000;2023-10-13T01:46:30;21.10;90.90
47414;DHT22;33163;0.000;0.000;2023-10-13T01:48:57;21.10;90.90
47414;DHT22;33163;0.000;0.000;2023-10-13T01:51:23;21.10;90.90
47414;DHT22;33163;0.000;0.000;2023-10-13T01:53:54;21.10;90.90
47414;DHT22;33163;0.000;0.000;2023-10-13T01:56:23;21.10;90.90
47414;DHT22;33163;0.000;0.000;2023-10-13T01:58:50;21.10;90.90
47414;DHT22;33163;0.000;0.000;2023-10-13T02:01:17;21.10;90.90
47414;DHT22;33163;0.000;0.000;2023-10-13T02:03:52;21.10;91.00
47414;DHT22;33163;0.000;0.000;2023-10-13T02:06:28;21.10;90.90
47414;DHT22;33163;0.000;0.000;2023-10-13T02:08:59;21.10;90.90
47414;DHT22;33163;0.000;0.000;2023-10-13T02:11:37;21.10;90.90
47414;DHT22;33163;0.000;0.000;2023-10-13T02:14:04;21.10;90.90
47414;DHT22;33163;0.000;0.000;2023-10-13T02:16:30;21.10;90.90
47414;DHT22;33163;0.000;0.000;2023-10-13T02:18:57;21.10;90.90
47414;DHT22;33163;0.000;0.000;2023-10-13T02:21:23;21.10;90.90
47414;DHT22;33163;0.000;0.000;2023-10-13T02:23:57;21.10;90.90
47414;DHT22;33163;0.000;0.000;2023-10-13T02:26:25;21.10;90.90
47414;DHT22;33163;0.000;0.000;2023-10-13T02:28:59;21.10;90.90
47414;DHT22;33163;0.000;0.000;2023-10-13T02:31:27;21.10;90.90
47414;DHT22;33163;0.000;0.000;2023-10-13T02:33:54;21.10;90.90
47414;DHT22;33163;0.000;0.000;2023-10-13T02:36:20;21.10;90.90
47414;DHT22;33163;0.000;0.000;2023-10-13T02:39:02;21.10;90.90
47414;DHT22;33163;0.000;0.000;2023-10-13T02:41:33;21.10;90.80
47414;DHT22;33163;0.000;0.000;2023-10-13T02:44:05;21.10;90.90
47414;DHT22;33163;0.000;0.000;2023-10-13T02:46:31;21.10;90.90
47414;DHT22;33163;0.000;0.000;2023-10-13T02:49:01;21.10;90.80
47414;DHT22;33163;0.000;0.000;2023-10-13T02:51:34;21.10;90.90
47414;DHT22;33163;0.000;0.000;2023-10-13T02:54:02;21.10;90.90
47414;DHT22;33163;0.000;0.000;2023-10-13T02:56:29;21.10;90.90
47414;DHT22;33163;0.000;0.000;2023-10-13T02:58:56;21.10;90.90
47414;DHT22;33163;0.000;0.000;2023-10-13T03:01:23;21.10;90.80
47414;DHT22;33163;0.000;0.000;2023-10-13T03:03:55;21.10;90.80
47414;DHT22;33163;0.000;0.000;2023-10-13T03:06:25;21.10;90.80
47414;DHT22;33163;0.000;0.000;2023-10-13T03:08:58;21.10;90.90
47414;DHT22;33163;0.000;0.000;2023-10-13T03:11:26;21.10;90.90
47414;DHT22;33163;0.000;0.000;2023-10-13T03:13:57;21.10;90.90
47414;DHT22;33163;0.000;0.000;2023-10-13T03:16:26;21.10;90.90
47414;DHT22;33163;0.000;0.000;2023-10-13T03:18:54;21.10;90.90
47414;DHT22;33163;0.000;0.000;2023-10-13T03:21:22;21.10;90.80
47414;DHT22;33163;0.000;0.000;2023-10-13T03:23:56;21.10;90.80
47414;DHT22;33163;0.000;0.000;2023-10-13T03:26:29;21.10;90.80
47414;DHT22;33163;0.000;0.000;2023-10-13T03:28:55;21.10;90.80
47414;DHT22;33163;0.000;0.000;2023-10-13T03:31:23;21.00;90.80
47414;DHT22;33163;0.000;0.000;2023-10-13T03:33:55;21.00;90.80
47414;DHT22;33163;0.000;0.000;2023-10-13T03:36:25;21.10;90.80
47414;DHT22;33163;0.000;0.000;2023-10-13T03:39:15;21.10;90.80
47414;DHT22;33163;0.000;0.000;2023-10-13T03:41:41;21.10;90.80
47414;DHT22;33163;0.000;0.000;2023-10-13T03:44:10;21.10;90.80
47414;DHT22;33163;0.000;0.000;2023-10-13T03:46:43;21.10;90.80
47414;DHT22;33163;0.000;0.000;2023-10-13T03:49:14;21.10;90.80
47414;DHT22;33163;0.000;0.000;2023-10-13T03:51:47;21.10;90.80
47414;DHT22;33163;0.000;0.000;2023-10-13T03:54:14;21.00;90.80
47414;DHT22;33163;0.000;0.000;2023-10-13T03:56:42;21.10;90.80
47414;DHT22;33163;0.000;0.000;2023-10-13T03:59:11;21.10;90.80
47414;DHT22;33163;0.000;0.000;2023-10-13T04:01:44;21.00;90.80
47414;DHT22;33163;0.000;0.000;2023-10-13T04:04:15;21.10;90.80
47414;DHT22;33163;0.000;0.000;2023-10-13T04:06:55;21.00;90.80
47414;DHT22;33163;0.000;0.000;2023-10-13T04:09:39;21.10;90.80
47414;DHT22;33163;0.000;0.000;2023-10-13T04:12:32;21.00;90.80
47414;DHT22;33163;0.000;0.000;2023-10-13T04:15:17;21.00;90.80
47414;DHT22;33163;0.000;0.000;2023-10-13T04:17:52;21.10;90.80
47414;DHT22;33163;0.000;0.000;2023-10-13T04:20:20;21.00;90.80
47414;DHT22;33163;0.000;0.000;2023-10-13T04:23:03;21.00;90.80
47414;DHT22;33163;0.000;0.000;2023-10-13T04:25:44;21.00;90.80
47414;DHT22;33163;0.000;0.000;2023-10-13T04:28:28;21.00;90.80
47414;DHT22;33163;0.000;0.000;2023-10-13T04:31:03;21.00;90.80
47414;DHT22;33163;0.000;0.000;2023-10-13T04:33:37;21.00;90.80
47414;DHT22;33163;0.000;0.000;2023-10-13T04:36:18;21.00;90.80
47414;DHT22;33163;0.000;0.000;2023-10-13T04:39:02;21.00;91.10
47414;DHT22;33163;0.000;0.000;2023-10-13T04:41:37;21.00;90.80
47414;DHT22;33163;0.000;0.000;2023-10-13T04:44:05;21.00;90.80
47414;DHT22;33163;0.000;0.000;2023-10-13T04:46:52;21.00;90.80
47414;DHT22;33163;0.000;0.000;2023-10-13T04:49:34;21.00;90.80
47414;DHT22;33163;0.000;0.000;2023-10-13T04:52:16;21.00;91.10
47414;DHT22;33163;0.000;0.000;2023-10-13T04:55:05;21.00;90.80
47414;DHT22;33163;0.000;0.000;2023-10-13T04:57:59;21.00;90.80
47414;DHT22;33163;0.000;0.000;2023-10-13T05:00:36;21.00;90.80
47414;DHT22;33163;0.000;0.000;2023-10-13T05:03:25;21.00;90.80
47414;DHT22;33163;0.000;0.000;2023-10-13T05:06:18;21.00;90.80
47414;DHT22;33163;0.000;0.000;2023-10-13T05:09:03;21.00;90.80
47414;DHT22;33163;0.000;0.000;2023-10-13T05:11:48;21.00;90.80
47414;DHT22;33163;0.000;0.000;2023-10-13T05:14:32;21.00;90.80
47414;DHT22;33163;0.000;0.000;2023-10-13T05:17:16;21.00;90.80
47414;DHT22;33163;0.000;0.000;2023-10-13T05:20:01;21.00;90.80
47414;DHT22;33163;0.000;0.000;2023-10-13T05:22:45;21.00;90.80
47414;DHT22;33163;0.000;0.000;2023-10-13T05:25:35;21.00;90.80
47414;DHT22;33163;0.000;0.000;2023-10-13T05:28:22;21.00;90.80
47414;DHT22;33163;0.000;0.000;2023-10-13T05:31:06;21.00;90.80
47414;DHT22;33163;0.000;0.000;2023-10-13T05:33:50;21.00;90.80
47414;DHT22;33163;0.000;0.000;2023-10-13T05:36:35;21.00;90.80
47414;DHT22;33163;0.000;0.000;2023-10-13T05:39:19;21.00;90.80
47414;DHT22;33163;0.000;0.000;2023-10-13T05:42:05;21.00;90.80
47414;DHT22;33163;0.000;0.000;2023-10-13T05:44:49;21.00;90.80
47414;DHT22;33163;0.000;0.000;2023-10-13T05:47:49;21.00;90.80
47414;DHT22;33163;0.000;0.000;2023-10-13T05:50:26;21.00;90.80
47414;DHT22;33163;0.000;0.000;2023-10-13T05:53:15;21.00;90.80
47414;DHT22;33163;0.000;0.000;2023-10-13T05:56:01;21.00;90.80
47414;DHT22;33163;0.000;0.000;2023-10-13T05:58:46;21.00;90.80
47414;DHT22;33163;0.000;0.000;2023-10-13T06:01:31;21.00;90.80
47414;DHT22;33163;0.000;0.000;2023-10-13T06:04:15;21.00;90.80
47414;DHT22;33163;0.000;0.000;2023-10-13T06:06:59;21.00;90.80
47414;DHT22;33163;0.000;0.000;2023-10-13T06:09:43;21.00;90.80
47414;DHT22;33163;0.000;0.000;2023-10-13T06:12:27;21.00;90.80
47414;DHT22;33163;0.000;0.000;2023-10-13T06:15:12;21.00;90.80
47414;DHT22;33163;0.000;0.000;2023-10-13T06:17:57;21.00;90.90
47414;DHT22;33163;0.000;0.000;2023-10-13T06:20:40;21.00;90.90
47414;DHT22;33163;0.000;0.000;2023-10-13T06:23:25;21.00;91.00
47414;DHT22;33163;0.000;0.000;2023-10-13T06:26:09;21.00;91.10
47414;DHT22;33163;0.000;0.000;2023-10-13T06:28:53;21.00;91.10
47414;DHT22;33163;0.000;0.000;2023-10-13T06:31:21;21.00;91.10
47414;DHT22;33163;0.000;0.000;2023-10-13T06:33:48;21.00;91.20
47414;DHT22;33163;0.000;0.000;2023-10-13T06:36:15;21.00;91.20
47414;DHT22;33163;0.000;0.000;2023-10-13T06:38:43;21.00;91.30
47414;DHT22;33163;0.000;0.000;2023-10-13T06:41:10;21.00;91.20
47414;DHT22;33163;0.000;0.000;2023-10-13T06:43:45;21.00;91.40
47414;DHT22;33163;0.000;0.000;2023-10-13T06:46:15;21.00;91.30
47414;DHT22;33163;0.000;0.000;2023-10-13T06:48:50;21.00;91.30
47414;DHT22;33163;0.000;0.000;2023-10-13T06:51:18;21.00;91.30
47414;DHT22;33163;0.000;0.000;2023-10-13T06:53:48;21.00;91.50
47414;DHT22;33163;0.000;0.000;2023-10-13T06:56:15;21.00;91.50
47414;DHT22;33163;0.000;0.000;2023-10-13T06:58:47;21.00;91.50
47414;DHT22;33163;0.000;0.000;2023-10-13T07:01:14;21.00;91.50
47414;DHT22;33163;0.000;0.000;2023-10-13T07:03:41;21.00;91.50
47414;DHT22;33163;0.000;0.000;2023-10-13T07:06:10;21.00;91.50
47414;DHT22;33163;0.000;0.000;2023-10-13T07:08:43;21.00;91.50
47414;DHT22;33163;0.000;0.000;2023-10-13T07:11:17;21.00;91.60
47414;DHT22;33163;0.000;0.000;2023-10-13T07:13:48;21.00;91.50
47414;DHT22;33163;0.000;0.000;2023-10-13T07:16:17;21.10;91.50
47414;DHT22;33163;0.000;0.000;2023-10-13T07:18:44;21.10;91.50
47414;DHT22;33163;0.000;0.000;2023-10-13T07:21:19;21.10;91.60
47414;DHT22;33163;0.000;0.000;2023-10-13T07:23:56;21.00;91.50
47414;DHT22;33163;0.000;0.000;2023-10-13T07:26:34;21.00;91.50
47414;DHT22;33163;0.000;0.000;2023-10-13T07:29:02;21.10;91.60
47414;DHT22;33163;0.000;0.000;2023-10-13T07:31:33;21.00;91.50
47414;DHT22;33163;0.000;0.000;2023-10-13T07:34:00;21.10;91.50
47414;DHT22;33163;0.000;0.000;2023-10-13T07:36:36;21.00;91.50
47414;DHT22;33163;0.000;0.000;2023-10-13T07:39:06;21.10;91.60
47414;DHT22;33163;0.000;0.000;2023-10-13T07:41:47;21.10;91.70
47414;DHT22;33163;0.000;0.000;2023-10-13T07:44:18;21.00;91.70
47414;DHT22;33163;0.000;0.000;2023-10-13T07:46:50;21.00;91.60
47414;DHT22;33163;0.000;0.000;2023-10-13T07:49:28;21.00;91.60
47414;DHT22;33163;0.000;0.000;2023-10-13T07:51:58;21.00;91.60
47414;DHT22;33163;0.000;0.000;2023-10-13T07:54:29;21.00;91.60
47414;DHT22;33163;0.000;0.000;2023-10-13T07:56:55;21.00;91.60
47414;DHT22;33163;0.000;0.000;2023-10-13T07:59:22;21.00;91.60
47414;DHT22;33163;0.000;0.000;2023-10-13T08:01:50;21.00;91.50
47414;DHT22;33163;0.000;0.000;2023-10-13T08:04:37;21.00;91.50
47414;DHT22;33163;0.000;0.000;2023-10-13T08:07:05;21.00;91.60
47414;DHT22;33163;0.000;0.000;2023-10-13T08:09:39;21.10;91.60
47414;DHT22;33163;0.000;0.000;2023-10-13T08:12:07;21.00;91.50
47414;DHT22;33163;0.000;0.000;2023-10-13T08:14:37;21.00;91.50
47414;DHT22;33163;0.000;0.000;2023-10-13T08:17:06;21.00;91.50
47414;DHT22;33163;0.000;0.000;2023-10-13T08:19:35;21.10;91.70
47414;DHT22;33163;0.000;0.000;2023-10-13T08:22:12;21.10;91.60
47414;DHT22;33163;0.000;0.000;2023-10-13T08:24:52;21.00;91.50
47414;DHT22;33163;0.000;0.000;2023-10-13T08:27:36;21.10;91.60
47414;DHT22;33163;0.000;0.000;2023-10-13T08:30:15;21.00;91.50
47414;DHT22;33163;0.000;0.000;2023-10-13T08:32:55;21.00;91.50
47414;DHT22;33163;0.000;0.000;2023-10-13T08:35:23;21.10;91.50
47414;DHT22;33163;0.000;0.000;2023-10-13T08:37:52;21.00;91.50
47414;DHT22;33163;0.000;0.000;2023-10-13T08:40:43;21.10;91.50
47414;DHT22;33163;0.000;0.000;2023-10-13T08:43:32;21.00;91.50
47414;DHT22;33163;0.000;0.000;2023-10-13T08:46:09;21.00;91.50
47414;DHT22;33163;0.000;0.000;2023-10-13T08:48:52;21.10;91.50
47414;DHT22;33163;0.000;0.000;2023-10-13T08:51:33;21.00;91.50
47414;DHT22;33163;0.000;0.000;2023-10-13T08:54:13;21.00;91.50
47414;DHT22;33163;0.000;0.000;2023-10-13T08:56:47;21.00;91.50
47414;DHT22;33163;0.000;0.000;2023-10-13T08:59:20;21.10;91.60
47414;DHT22;33163;0.000;0.000;2023-10-13T09:01:59;21.00;91.50
47414;DHT22;33163;0.000;0.000;2023-10-13T09:04:26;21.10;91.50
47414;DHT22;33163;0.000;0.000;2023-10-13T09:07:00;21.10;91.50
47414;DHT22;33163;0.000;0.000;2023-10-13T09:09:45;21.00;91.40
47414;DHT22;33163;0.000;0.000;2023-10-13T09:12:37;21.10;91.40
47414;DHT22;33163;0.000;0.000;2023-10-13T09:15:08;21.10;91.40
47414;DHT22;33163;0.000;0.000;2023-10-13T09:17:50;21.10;91.40
47414;DHT22;33163;0.000;0.000;2023-10-13T09:20:19;21.10;91.40
47414;DHT22;33163;0.000;0.000;2023-10-13T09:22:58;21.10;91.50
47414;DHT22;33163;0.000;0.000;2023-10-13T09:25:35;21.10;91.40
47414;DHT22;33163;0.000;0.000;2023-10-13T09:28:03;21.10;91.30
47414;DHT22;33163;0.000;0.000;2023-10-13T09:30:42;21.00;91.30
47414;DHT22;33163;0.000;0.000;2023-10-13T09:33:09;21.00;91.30
47414;DHT22;33163;0.000;0.000;2023-10-13T09:35:43;21.10;91.30
47414;DHT22;33163;0.000;0.000;2023-10-13T09:38:14;21.10;91.30
47414;DHT22;33163;0.000;0.000;2023-10-13T09:40:44;21.10;91.30
47414;DHT22;33163;0.000;0.000;2023-10-13T09:43:16;21.10;91.30
47414;DHT22;33163;0.000;0.000;2023-10-13T09:45:46;21.10;91.30
47414;DHT22;33163;0.000;0.000;2023-10-13T09:48:31;21.10;91.30
47414;DHT22;33163;0.000;0.000;2023-10-13T09:51:01;21.10;91.30
47414;DHT22;33163;0.000;0.000;2023-10-13T09:53:30;21.10;91.30
47414;DHT22;33163;0.000;0.000;2023-10-13T09:56:03;21.10;91.20
47414;DHT22;33163;0.000;0.000;2023-10-13T09:58:46;21.10;91.20
47414;DHT22;33163;0.000;0.000;2023-10-13T10:01:19;21.20;91.20
47414;DHT22;33163;0.000;0.000;2023-10-13T10:04:06;21.10;91.00
47414;DHT22;33163;0.000;0.000;2023-10-13T10:06:34;21.20;91.10
47414;DHT22;33163;0.000;0.000;2023-10-13T10:09:05;21.20;91.10
47414;DHT22;33163;0.000;0.000;2023-10-13T10:12:12;21.20;91.10
47414;DHT22;33163;0.000;0.000;2023-10-13T10:15:03;21.20;91.00
47414;DHT22;33163;0.000;0.000;2023-10-13T10:17:39;21.30;91.00
47414;DHT22;33163;0.000;0.000;2023-10-13T10:20:07;21.30;91.00
47414;DHT22;33163;0.000;0.000;2023-10-13T10:22:56;21.20;90.90
47414;DHT22;33163;0.000;0.000;2023-10-13T10:25:29;21.30;90.90
47414;DHT22;33163;0.000;0.000;2023-10-13T10:28:03;21.30;90.90
47414;DHT22;33163;0.000;0.000;2023-10-13T10:30:34;21.30;91.00
47414;DHT22;33163;0.000;0.000;2023-10-13T10:33:05;21.30;90.90
47414;DHT22;33163;0.000;0.000;2023-10-13T10:35:34;21.30;90.90
47414;DHT22;33163;0.000;0.000;2023-10-13T10:38:08;21.30;91.20
47414;DHT22;33163;0.000;0.000;2023-10-13T10:40:51;21.30;90.90
47414;DHT22;33163;0.000;0.000;2023-10-13T10:43:24;21.30;90.80
47414;DHT22;33163;0.000;0.000;2023-10-13T10:45:52;21.30;90.90
47414;DHT22;33163;0.000;0.000;2023-10-13T10:48:25;21.30;90.80
47414;DHT22;33163;0.000;0.000;2023-10-13T10:50:57;21.30;90.80
47414;DHT22;33163;0.000;0.000;2023-10-13T10:53:33;21.30;90.80
47414;DHT22;33163;0.000;0.000;2023-10-13T10:56:09;21.30;90.90
47414;DHT22;33163;0.000;0.000;2023-10-13T10:58:48;21.30;90.80
47414;DHT22;33163;0.000;0.000;2023-10-13T11:01:20;21.30;90.80
47414;DHT22;33163;0.000;0.000;2023-10-13T11:03:54;21.30;90.80
47414;DHT22;33163;0.000;0.000;2023-10-13T11:06:23;21.30;90.90
47414;DHT22;33163;0.000;0.000;2023-10-13T11:09:02;21.30;90.80
47414;DHT22;33163;0.000;0.000;2023-10-13T11:11:32;21.30;90.80
47414;DHT22;33163;0.000;0.000;2023-10-13T11:14:02;21.30;90.80
47414;DHT22;33163;0.000;0.000;2023-10-13T11:16:47;21.30;90.80
47414;DHT22;33163;0.000;0.000;2023-10-13T11:19:19;21.40;90.80
47414;DHT22;33163;0.000;0.000;2023-10-13T11:21:51;21.30;90.80
47414;DHT22;33163;0.000;0.000;2023-10-13T11:24:19;21.30;90.80
47414;DHT22;33163;0.000;0.000;2023-10-13T11:26:47;21.30;90.80
47414;DHT22;33163;0.000;0.000;2023-10-13T11:29:19;21.40;90.90
47414;DHT22;33163;0.000;0.000;2023-10-13T11:31:47;21.30;90.80
47414;DHT22;33163;0.000;0.000;2023-10-13T11:34:19;21.40;90.80
47414;DHT22;33163;0.000;0.000;2023-10-13T11:36:46;21.40;90.80
47414;DHT22;33163;0.000;0.000;2023-10-13T11:39:13;21.40;90.80
47414;DHT22;33163;0.000;0.000;2023-10-13T11:41:53;21.40;90.80
47414;DHT22;33163;0.000;0.000;2023-10-13T11:44:23;21.40;90.70
47414;DHT22;33163;0.000;0.000;2023-10-13T11:46:49;21.40;90.70
47414;DHT22;33163;0.000;0.000;2023-10-13T11:49:22;21.40;90.70
47414;DHT22;33163;0.000;0.000;2023-10-13T11:51:59;21.30;90.70
47414;DHT22;33163;0.000;0.000;2023-10-13T11:54:41;21.30;90.70
47414;DHT22;33163;0.000;0.000;2023-10-13T11:57:08;21.30;90.70
47414;DHT22;33163;0.000;0.000;2023-10-13T11:59:36;21.30;90.70
47414;DHT22;33163;0.000;0.000;2023-10-13T12:02:11;21.30;90.70
47414;DHT22;33163;0.000;0.000;2023-10-13T12:04:55;21.30;90.70
47414;DHT22;33163;0.000;0.000;2023-10-13T12:07:24;21.30;90.60
47414;DHT22;33163;0.000;0.000;2023-10-13T12:10:06;21.30;90.60
47414;DHT22;33163;0.000;0.000;2023-10-13T12:12:40;21.30;90.60
47414;DHT22;33163;0.000;0.000;2023-10-13T12:15:10;21.30;90.60
47414;DHT22;33163;0.000;0.000;2023-10-13T12:17:50;21.30;90.60
47414;DHT22;33163;0.000;0.000;2023-10-13T12:20:17;21.30;90.60
47414;DHT22;33163;0.000;0.000;2023-10-13T12:22:58;21.30;90.60
47414;DHT22;33163;0.000;0.000;2023-10-13T12:25:37;21.30;90.90
47414;DHT22;33163;0.000;0.000;2023-10-13T12:28:22;21.30;90.60
47414;DHT22;33163;0.000;0.000;2023-10-13T12:30:53;21.30;90.60
47414;DHT22;33163;0.000;0.000;2023-10-13T12:33:24;21.30;90.50
47414;DHT22;33163;0.000;0.000;2023-10-13T12:35:56;21.30;90.50
47414;DHT22;33163;0.000;0.000;2023-10-13T12:38:53;21.30;90.60
47414;DHT22;33163;0.000;0.000;2023-10-13T12:41:37;21.30;90.60
47414;DHT22;33163;0.000;0.000;2023-10-13T12:44:21;21.30;90.60
47414;DHT22;33163;0.000;0.000;2023-10-13T12:47:07;21.30;90.50
47414;DHT22;33163;0.000;0.000;2023-10-13T12:49:51;21.30;90.60
47414;DHT22;33163;0.000;0.000;2023-10-13T12:52:39;21.30;90.60
47414;DHT22;33163;0.000;0.000;2023-10-13T12:55:11;21.30;90.90
47414;DHT22;33163;0.000;0.000;2023-10-13T12:57:39;21.30;90.60
47414;DHT22;33163;0.000;0.000;2023-10-13T13:00:12;21.30;90.60
47414;DHT22;33163;0.000;0.000;2023-10-13T13:02:52;21.30;90.60
47414;DHT22;33163;0.000;0.000;2023-10-13T13:05:21;21.30;90.60
47414;DHT22;33163;0.000;0.000;2023-10-13T13:07:54;21.30;90.60
47414;DHT22;33163;0.000;0.000;2023-10-13T13:10:26;21.30;90.60
47414;DHT22;33163;0.000;0.000;2023-10-13T13:13:09;21.30;90.60
47414;DHT22;33163;0.000;0.000;2023-10-13T13:15:36;21.30;90.70
47414;DHT22;33163;0.000;0.000;2023-10-13T13:18:05;21.30;90.60
47414;DHT22;33163;0.000;0.000;2023-10-13T13:20:51;21.30;90.70
47414;DHT22;33163;0.000;0.000;2023-10-13T13:23:44;21.20;90.70
47414;DHT22;33163;0.000;0.000;2023-10-13T13:26:10;21.30;90.70
47414;DHT22;33163;0.000;0.000;2023-10-13T13:28:43;21.30;90.70
47414;DHT22;33163;0.000;0.000;2023-10-13T13:31:10;21.30;90.70
47414;DHT22;33163;0.000;0.000;2023-10-13T13:33:39;21.30;90.70
47414;DHT22;33163;0.000;0.000;2023-10-13T13:36:09;21.20;90.70
47414;DHT22;33163;0.000;0.000;2023-10-13T13:38:39;21.30;90.70
47414;DHT22;33163;0.000;0.000;2023-10-13T13:41:14;21.30;90.70
47414;DHT22;33163;0.000;0.000;2023-10-13T13:43:42;21.30;90.80
47414;DHT22;33163;0.000;0.000;2023-10-13T13:46:20;21.30;90.80
47414;DHT22;33163;0.000;0.000;2023-10-13T13:48:51;21.30;90.80
47414;DHT22;33163;0.000;0.000;2023-10-13T13:51:23;21.30;90.80
47414;DHT22;33163;0.000;0.000;2023-10-13T13:53:59;21.30;90.80
47414;DHT22;33163;0.000;0.000;2023-10-13T13:56:32;21.30;90.80
47414;DHT22;33163;0.000;0.000;2023-10-13T13:59:04;21.30;90.90
47414;DHT22;33163;0.000;0.000;2023-10-13T14:01:34;21.20;90.90
47414;DHT22;33163;0.000;0.000;2023-10-13T14:04:04;21.20;90.90
47414;DHT22;33163;0.000;0.000;2023-10-13T14:06:32;21.20;90.90
47414;DHT22;33163;0.000;0.000;2023-10-13T14:09:01;21.20;91.00
47414;DHT22;33163;0.000;0.000;2023-10-13T14:11:32;21.20;91.00
47414;DHT22;33163;0.000;0.000;2023-10-13T14:14:17;21.20;91.00
47414;DHT22;33163;0.000;0.000;2023-10-13T14:16:58;21.20;91.00
47414;DHT22;33163;0.000;0.000;2023-10-13T14:19:33;21.20;91.10
47414;DHT22;33163;0.000;0.000;2023-10-13T14:22:01;21.20;91.10
47414;DHT22;33163;0.000;0.000;2023-10-13T14:24:32;21.20;91.10
47414;DHT22;33163;0.000;0.000;2023-10-13T14:27:00;21.20;91.10
47414;DHT22;33163;0.000;0.000;2023-10-13T14:29:34;21.20;91.10
47414;DHT22;33163;0.000;0.000;2023-10-13T14:32:06;21.20;91.10
47414;DHT22;33163;0.000;0.000;2023-10-13T14:34:34;21.20;91.10
47414;DHT22;33163;0.000;0.000;2023-10-13T14:37:01;21.20;91.20
47414;DHT22;33163;0.000;0.000;2023-10-13T14:39:30;21.20;91.20
47414;DHT22;33163;0.000;0.000;2023-10-13T14:42:00;21.20;91.20
47414;DHT22;33163;0.000;0.000;2023-10-13T14:44:28;21.20;91.30
47414;DHT22;33163;0.000;0.000;2023-10-13T14:46:55;21.20;91.20
47414;DHT22;33163;0.000;0.000;2023-10-13T14:49:21;21.20;91.30
47414;DHT22;33163;0.000;0.000;2023-10-13T14:51:50;21.20;91.30
47414;DHT22;33163;0.000;0.000;2023-10-13T14:54:17;21.20;91.30
47414;DHT22;33163;0.000;0.000;2023-10-13T14:56:50;21.10;91.30
47414;DHT22;33163;0.000;0.000;2023-10-13T14:59:20;21.20;91.30
47414;DHT22;33163;0.000;0.000;2023-10-13T15:01:47;21.20;91.30
47414;DHT22;33163;0.000;0.000;2023-10-13T15:04:14;21.20;91.30
47414;DHT22;33163;0.000;0.000;2023-10-13T15:06:41;21.20;91.30
47414;DHT22;33163;0.000;0.000;2023-10-13T15:09:11;21.20;91.20
47414;DHT22;33163;0.000;0.000;2023-10-13T15:11:38;21.20;91.30
47414;DHT22;33163;0.000;0.000;2023-10-13T15:14:07;21.20;91.30
47414;DHT22;33163;0.000;0.000;2023-10-13T15:16:34;21.10;91.30
47414;DHT22;33163;0.000;0.000;2023-10-13T15:19:01;21.20;91.30
47414;DHT22;33163;0.000;0.000;2023-10-13T15:21:30;21.20;91.20
47414;DHT22;33163;0.000;0.000;2023-10-13T15:24:00;21.20;91.30
47414;DHT22;33163;0.000;0.000;2023-10-13T15:26:30;21.20;91.30
47414;DHT22;33163;0.000;0.000;2023-10-13T15:29:03;21.20;91.30
47414;DHT22;33163;0.000;0.000;2023-10-13T15:31:34;21.20;91.40
47414;DHT22;33163;0.000;0.000;2023-10-13T15:34:04;21.20;91.40
47414;DHT22;33163;0.000;0.000;2023-10-13T15:36:38;21.20;91.50
47414;DHT22;33163;0.000;0.000;2023-10-13T15:39:06;21.20;91.50
47414;DHT22;33163;0.000;0.000;2023-10-13T15:41:37;21.20;91.40
47414;DHT22;33163;0.000;0.000;2023-10-13T15:44:05;21.20;91.30
47414;DHT22;33163;0.000;0.000;2023-10-13T15:46:35;21.20;91.40
47414;DHT22;33163;0.000;0.000;2023-10-13T15:49:03;21.20;91.30
47414;DHT22;33163;0.000;0.000;2023-10-13T15:51:32;21.20;91.20
47414;DHT22;33163;0.000;0.000;2023-10-13T15:53:59;21.20;91.20
47414;DHT22;33163;0.000;0.000;2023-10-13T15:56:26;21.20;91.20
47414;DHT22;33163;0.000;0.000;2023-10-13T15:58:54;21.20;91.30
47414;DHT22;33163;0.000;0.000;2023-10-13T16:01:21;21.20;91.40
47414;DHT22;33163;0.000;0.000;2023-10-13T16:03:49;21.20;91.40
47414;DHT22;33163;0.000;0.000;2023-10-13T16:06:16;21.20;91.20
47414;DHT22;33163;0.000;0.000;2023-10-13T16:08:43;21.20;91.40
47414;DHT22;33163;0.000;0.000;2023-10-13T16:11:11;21.20;91.30
47414;DHT22;33163;0.000;0.000;2023-10-13T16:13:40;21.20;91.20
47414;DHT22;33163;0.000;0.000;2023-10-13T16:16:15;21.30;91.20
47414;DHT22;33163;0.000;0.000;2023-10-13T16:18:42;21.30;91.30
47414;DHT22;33163;0.000;0.000;2023-10-13T16:21:09;21.30;91.30
47414;DHT22;33163;0.000;0.000;2023-10-13T16:23:37;21.30;91.40
47414;DHT22;33163;0.000;0.000;2023-10-13T16:26:05;21.30;91.40